Terminal Aerodrome Forecast
Issued by NWS

Home | Current Version | Previous Version | Text Only | Print | Product List | Glossary On
Versions: 1 2 3 4 5 6 7 8 9 10 11 12 13 14 15 16 17 18 19 20 21
000
FTUS43 KLSX 010938 AAA
TAFUIN
TAF AMD
KUIN 010938Z 0110/0206 02008KT 1SM BR VV002
     FM011500 03006KT 5SM BR BKN005
     FM011800 32009KT P6SM VCSH BKN015
     FM020000 33008KT P6SM BKN010=

USA.gov is the U.S. government's official web portal to all federal, state and local government web resources and services.